createdAt,value
2022-11-02T00:02:11.904Z,17.60
2022-11-02T00:05:23.971Z,17.10
2022-11-02T00:08:30.102Z,17.30
2022-11-02T00:11:37.551Z,17.90
2022-11-02T00:14:43.749Z,18.40
2022-11-02T00:17:52.463Z,18.30
2022-11-02T00:20:58.910Z,20.90
2022-11-02T00:24:07.198Z,21.90
2022-11-02T00:27:13.692Z,20.90
2022-11-02T00:30:19.894Z,20.20
2022-11-02T00:33:25.950Z,21.30
2022-11-02T00:36:32.135Z,20.90
2022-11-02T00:39:38.173Z,19.00
2022-11-02T00:42:44.255Z,19.60
2022-11-02T00:45:50.285Z,20.20
2022-11-02T00:48:56.460Z,20.20
2022-11-02T00:52:03.389Z,19.60
2022-11-02T01:01:19.972Z,19.50
2022-11-02T01:07:32.087Z,20.10
2022-11-02T01:10:39.045Z,20.10
2022-11-02T01:13:47.219Z,22.20
2022-11-02T01:16:53.291Z,22.50
2022-11-02T01:19:59.418Z,22.80
2022-11-02T01:23:05.577Z,20.90
2022-11-02T01:26:12.803Z,22.00
2022-11-02T01:29:19.418Z,23.70
2022-11-02T01:32:25.544Z,22.60
2022-11-02T01:35:31.580Z,21.70
2022-11-02T01:38:37.610Z,24.40
2022-11-02T01:41:43.917Z,24.20
2022-11-02T01:47:54.952Z,22.00
2022-11-02T01:51:04.097Z,21.20
2022-11-02T01:54:14.171Z,21.80
2022-11-02T01:57:23.276Z,23.60
2022-11-02T02:00:29.422Z,21.40
2022-11-02T02:03:37.282Z,21.60
2022-11-02T02:06:45.247Z,21.50
2022-11-02T02:09:51.705Z,21.10
2022-11-02T02:12:57.983Z,19.70
2022-11-02T02:19:25.162Z,19.80
2022-11-02T02:22:57.805Z,21.10
2022-11-02T02:26:39.644Z,19.60
2022-11-02T02:30:02.095Z,19.70
2022-11-02T02:33:13.783Z,20.90
2022-11-02T02:36:26.221Z,21.10
2022-11-02T02:39:37.797Z,22.50
2022-11-02T02:42:50.314Z,20.90
2022-11-02T02:46:01.712Z,21.30
2022-11-02T02:49:09.926Z,21.10
2022-11-02T02:52:19.556Z,20.60
2022-11-02T02:55:30.934Z,20.30
2022-11-02T02:58:43.771Z,20.70
2022-11-02T03:01:51.390Z,21.10
2022-11-02T03:04:57.591Z,20.00
2022-11-02T03:08:09.075Z,21.40
2022-11-02T03:11:18.413Z,21.00
2022-11-02T03:14:38.769Z,19.50
2022-11-02T03:18:04.281Z,20.00
2022-11-02T03:21:23.646Z,18.60
2022-11-02T03:24:37.985Z,18.60
2022-11-02T03:27:54.762Z,19.40
2022-11-02T03:31:08.329Z,20.10
2022-11-02T03:34:24.434Z,19.50
2022-11-02T03:40:41.686Z,17.40
2022-11-02T03:43:50.335Z,17.90
2022-11-02T03:47:00.898Z,16.00
2022-11-02T03:50:10.509Z,15.60
2022-11-02T03:53:24.049Z,16.90
2022-11-02T03:56:35.130Z,18.40
2022-11-02T03:59:41.609Z,16.10
2022-11-02T04:02:50.481Z,15.10
2022-11-02T04:05:56.788Z,14.20
2022-11-02T04:09:03.181Z,17.90
2022-11-02T04:12:27.235Z,18.10
2022-11-02T04:15:33.373Z,16.80
2022-11-02T04:18:56.971Z,18.60
2022-11-02T04:22:20.748Z,16.10
2022-11-02T04:25:27.017Z,17.10
2022-11-02T04:31:37.903Z,16.70
2022-11-02T04:34:43.842Z,16.00
2022-11-02T04:38:07.891Z,16.50
2022-11-02T04:41:33.878Z,17.30
2022-11-02T04:44:40.106Z,17.10
2022-11-02T04:47:46.219Z,18.50
2022-11-02T04:50:52.344Z,16.80
2022-11-02T04:53:59.252Z,18.00
2022-11-02T04:57:05.493Z,15.80
2022-11-02T05:03:17.382Z,14.10
2022-11-02T05:06:24.584Z,13.30
2022-11-02T05:09:30.636Z,13.00
2022-11-02T05:12:36.850Z,10.50
2022-11-02T05:15:43.320Z,10.10
2022-11-02T05:18:49.553Z,9.20
2022-11-02T05:21:55.632Z,9.10
2022-11-02T05:25:01.693Z,9.00
2022-11-02T05:28:08.177Z,8.30
2022-11-02T05:31:14.429Z,8.40
2022-11-02T05:34:20.575Z,8.20
2022-11-02T05:37:26.664Z,7.80
2022-11-02T05:40:33.875Z,8.00
2022-11-02T05:43:40.096Z,7.60
2022-11-02T05:46:47.414Z,8.00
2022-11-02T05:49:53.561Z,8.50
2022-11-02T05:52:59.694Z,9.30
2022-11-02T05:56:08.019Z,9.50
2022-11-02T05:59:14.341Z,9.70
2022-11-02T06:05:30.021Z,10.00
2022-11-02T06:08:37.303Z,8.80
2022-11-02T06:11:43.351Z,8.50
2022-11-02T06:14:49.383Z,8.10
2022-11-02T06:17:55.581Z,8.70
2022-11-02T06:21:01.935Z,8.80
2022-11-02T06:27:12.745Z,8.80
2022-11-02T06:30:19.142Z,9.30
2022-11-02T06:33:25.410Z,8.80
2022-11-02T06:36:31.662Z,9.00
2022-11-02T06:43:03.293Z,9.50
2022-11-02T06:46:09.752Z,8.70
2022-11-02T06:49:15.856Z,8.80
2022-11-02T06:52:21.809Z,8.80
2022-11-02T06:55:28.003Z,9.60
2022-11-02T06:58:34.123Z,9.60
2022-11-02T07:01:40.264Z,11.10
2022-11-02T07:07:53.747Z,10.90
2022-11-02T07:11:00.102Z,11.00
2022-11-02T07:17:10.759Z,10.70
2022-11-02T07:20:17.426Z,10.30
2022-11-02T07:23:24.280Z,10.50
2022-11-02T07:26:30.813Z,10.00
2022-11-02T07:29:36.823Z,10.50
2022-11-02T07:32:47.038Z,10.90
2022-11-02T07:35:53.101Z,13.50
2022-11-02T07:38:59.123Z,14.00
2022-11-02T07:42:07.235Z,14.10
2022-11-02T07:45:14.069Z,17.10
2022-11-02T07:48:20.281Z,15.20
2022-11-02T07:51:26.901Z,13.90
2022-11-02T07:54:32.989Z,14.80
2022-11-02T07:57:39.002Z,16.20
2022-11-02T08:00:45.329Z,16.10
2022-11-02T08:06:56.087Z,15.30
2022-11-02T08:13:07.036Z,14.40
2022-11-02T08:16:13.146Z,14.30
2022-11-02T08:19:19.270Z,14.00
2022-11-02T08:22:25.361Z,14.00
2022-11-02T08:25:31.699Z,14.40
2022-11-02T08:31:46.338Z,14.40
2022-11-02T08:34:52.369Z,15.40
2022-11-02T08:38:00.075Z,13.00
2022-11-02T08:41:06.596Z,12.40
2022-11-02T08:44:12.709Z,11.90
2022-11-02T08:47:19.289Z,11.10
2022-11-02T08:50:26.508Z,11.50
2022-11-02T08:53:32.981Z,11.20
2022-11-02T08:56:39.098Z,11.10
2022-11-02T09:03:01.711Z,10.80
2022-11-02T09:06:08.386Z,11.60
2022-11-02T09:09:14.722Z,10.20
2022-11-02T09:12:20.686Z,9.70
2022-11-02T09:15:26.790Z,9.80
2022-11-02T09:18:33.344Z,9.80
2022-11-02T09:21:40.087Z,10.40
2022-11-02T09:24:46.157Z,9.70
2022-11-02T09:27:55.862Z,9.90
2022-11-02T09:31:03.826Z,9.90
2022-11-02T09:34:12.308Z,9.60
2022-11-02T09:40:25.210Z,10.10
2022-11-02T09:43:42.012Z,9.30
2022-11-02T09:47:09.260Z,9.90
2022-11-02T09:50:19.967Z,10.00
2022-11-02T09:53:35.216Z,9.70
2022-11-02T09:56:41.997Z,9.10
2022-11-02T09:59:48.317Z,9.20
2022-11-02T10:03:03.282Z,10.10
2022-11-02T10:06:15.851Z,9.10
2022-11-02T10:09:30.815Z,9.70
2022-11-02T10:12:44.056Z,8.00
2022-11-02T10:15:54.450Z,8.80
2022-11-02T10:19:00.982Z,8.90
2022-11-02T10:22:09.956Z,8.20
2022-11-02T10:25:19.055Z,7.40
2022-11-02T10:28:32.682Z,9.50
2022-11-02T10:31:39.291Z,10.20
2022-11-02T10:34:58.728Z,7.80
2022-11-02T10:38:26.203Z,7.80
2022-11-02T10:41:50.907Z,6.80
2022-11-02T10:45:15.092Z,7.70
2022-11-02T10:48:30.577Z,6.10
2022-11-02T10:51:36.879Z,6.60
2022-11-02T10:54:43.382Z,5.90
2022-11-02T10:57:50.575Z,6.10
2022-11-02T11:01:08.180Z,5.10
2022-11-02T11:04:25.746Z,5.30
2022-11-02T11:07:32.351Z,5.40
2022-11-02T11:10:44.327Z,5.10
2022-11-02T11:20:58.958Z,4.70
2022-11-02T11:24:25.435Z,4.20
2022-11-02T11:27:31.554Z,3.80
2022-11-02T11:34:04.184Z,4.20
2022-11-02T11:37:13.902Z,3.80
2022-11-02T11:40:22.610Z,3.20
2022-11-02T11:43:31.920Z,3.60
2022-11-02T11:46:46.964Z,3.10
2022-11-02T11:50:12.940Z,2.90
2022-11-02T11:53:23.488Z,3.00
2022-11-02T11:56:29.985Z,2.70
2022-11-02T11:59:49.199Z,3.20
2022-11-02T12:03:06.991Z,3.00
2022-11-02T12:06:22.806Z,2.30
2022-11-02T12:09:35.422Z,2.40
2022-11-02T12:13:00.525Z,2.20
2022-11-02T12:16:16.194Z,2.70
2022-11-02T12:19:34.092Z,2.60
2022-11-02T12:22:51.456Z,2.50
2022-11-02T12:26:06.345Z,2.40
2022-11-02T12:29:32.872Z,2.30
2022-11-02T12:32:50.670Z,2.40
2022-11-02T12:36:25.142Z,2.50
2022-11-02T12:39:41.945Z,2.50
2022-11-02T12:42:57.348Z,2.70
2022-11-02T12:46:08.825Z,2.70
2022-11-02T12:49:31.221Z,2.60
2022-11-02T12:52:51.860Z,3.20
2022-11-02T12:56:02.044Z,4.10
2022-11-02T12:59:14.402Z,2.90
2022-11-02T13:02:26.633Z,2.60
2022-11-02T13:05:39.149Z,3.20
2022-11-02T13:08:51.266Z,2.90
2022-11-02T13:12:04.802Z,3.00
2022-11-02T13:15:19.000Z,2.40
2022-11-02T13:18:31.553Z,2.40
2022-11-02T13:21:44.319Z,2.40
2022-11-02T13:24:54.633Z,2.30
2022-11-02T13:28:05.843Z,3.60
2022-11-02T13:31:17.842Z,8.10
2022-11-02T13:34:33.967Z,17.40
2022-11-02T13:37:44.894Z,19.40
2022-11-02T13:40:58.750Z,27.30
2022-11-02T13:44:22.730Z,21.40
2022-11-02T13:47:52.039Z,11.80
2022-11-02T13:51:01.364Z,25.10
2022-11-02T13:54:14.016Z,38.30
2022-11-02T13:57:34.609Z,20.70
2022-11-02T14:00:45.604Z,32.10
2022-11-02T14:04:01.454Z,7.40
2022-11-02T14:07:10.632Z,17.60
2022-11-02T14:10:19.982Z,10.30
2022-11-02T14:14:17.059Z,7.60
2022-11-02T14:17:23.208Z,11.50
2022-11-02T14:20:37.157Z,9.20
2022-11-02T14:23:43.696Z,8.70
2022-11-02T14:26:59.298Z,9.60
2022-11-02T14:30:05.780Z,10.40
2022-11-02T14:33:18.784Z,5.70
2022-11-02T14:36:40.589Z,4.00
2022-11-02T14:39:54.414Z,4.10
2022-11-02T14:43:22.566Z,4.70
2022-11-02T14:46:48.622Z,3.70
2022-11-02T14:49:57.506Z,4.30
2022-11-02T14:53:09.139Z,10.20
2022-11-02T14:56:15.950Z,12.80
2022-11-02T14:59:26.697Z,33.60
2022-11-02T15:02:38.640Z,24.30
2022-11-02T15:05:48.648Z,19.30
2022-11-02T15:08:57.170Z,13.90
2022-11-02T15:12:22.601Z,15.60
2022-11-02T15:15:36.428Z,12.00
2022-11-02T15:18:42.817Z,9.10
2022-11-02T15:21:50.494Z,7.20
2022-11-02T15:24:58.777Z,8.20
2022-11-02T15:28:13.291Z,6.40
2022-11-02T15:31:25.875Z,5.80
2022-11-02T15:34:38.214Z,6.10
2022-11-02T15:38:11.281Z,6.40
2022-11-02T15:41:25.434Z,5.30
2022-11-02T15:45:14.298Z,5.60
2022-11-02T15:48:41.278Z,6.80
2022-11-02T15:51:55.385Z,8.10
2022-11-02T15:55:12.755Z,15.20
2022-11-02T15:58:33.636Z,13.40
2022-11-02T16:01:41.081Z,11.50
2022-11-02T16:04:51.594Z,10.50
2022-11-02T16:08:20.784Z,10.20
2022-11-02T16:11:25.926Z,7.20
2022-11-02T16:14:34.222Z,7.40
2022-11-02T16:17:40.643Z,7.10
2022-11-02T16:20:48.234Z,7.80
2022-11-02T16:23:59.530Z,7.10
2022-11-02T16:27:10.585Z,7.70
2022-11-02T16:30:24.581Z,12.10
2022-11-02T16:33:32.963Z,11.80
2022-11-02T16:36:40.622Z,8.40
2022-11-02T16:39:49.143Z,14.30
2022-11-02T16:42:56.150Z,32.30
2022-11-02T16:46:05.088Z,28.10
2022-11-02T16:49:19.786Z,15.40
2022-11-02T16:52:29.192Z,44.50
2022-11-02T16:55:44.468Z,25.50
2022-11-02T16:59:00.009Z,12.20
2022-11-02T17:02:13.341Z,61.40
2022-11-02T17:05:22.065Z,27.00
2022-11-02T17:08:34.430Z,24.90
2022-11-02T17:11:44.813Z,29.40
2022-11-02T17:14:52.118Z,21.10
2022-11-02T17:18:25.159Z,17.60
2022-11-02T17:21:32.441Z,19.70
2022-11-02T17:24:39.086Z,19.50
2022-11-02T17:27:45.274Z,18.40
2022-11-02T17:33:58.142Z,40.10
2022-11-02T17:37:04.514Z,33.40
2022-11-02T17:40:14.145Z,27.70
2022-11-02T17:43:20.616Z,72.60
2022-11-02T17:46:26.846Z,71.50
2022-11-02T17:49:32.915Z,51.20
2022-11-02T17:52:39.845Z,29.70
2022-11-02T17:55:45.953Z,24.10
2022-11-02T18:01:56.640Z,17.90
2022-11-02T18:05:02.808Z,11.30
2022-11-02T18:11:15.331Z,11.70
2022-11-02T18:14:21.498Z,11.10
2022-11-02T18:17:31.091Z,11.00
2022-11-02T18:20:42.311Z,12.10
2022-11-02T18:23:48.732Z,11.00
2022-11-02T18:26:55.662Z,10.50
2022-11-02T18:30:01.863Z,11.80
2022-11-02T18:36:19.745Z,16.40
2022-11-02T18:39:26.003Z,18.70
2022-11-02T18:42:32.804Z,21.90
2022-11-02T18:45:38.901Z,14.90
2022-11-02T18:48:45.067Z,11.70
2022-11-02T18:54:56.116Z,12.20
2022-11-02T18:58:02.613Z,11.30
2022-11-02T19:01:14.355Z,9.60
2022-11-02T19:04:20.619Z,8.40
2022-11-02T19:10:49.651Z,9.90
2022-11-02T19:13:55.856Z,10.00
2022-11-02T19:20:07.551Z,8.30
2022-11-02T19:23:13.700Z,8.60
2022-11-02T19:29:24.474Z,7.10
2022-11-02T19:35:35.810Z,8.20
2022-11-02T19:38:42.373Z,8.50
2022-11-02T19:41:52.422Z,7.30
2022-11-02T19:44:58.558Z,8.40
2022-11-02T19:51:15.817Z,7.60
2022-11-02T19:54:25.623Z,7.40
2022-11-02T19:57:33.394Z,8.30
2022-11-02T20:00:39.718Z,7.30
2022-11-02T20:06:50.848Z,8.40
2022-11-02T20:13:05.887Z,9.40
2022-11-02T20:16:13.783Z,8.80
2022-11-02T20:19:19.852Z,8.00
2022-11-02T20:22:26.026Z,8.20
2022-11-02T20:28:40.038Z,7.80
2022-11-02T20:31:46.211Z,9.20
2022-11-02T20:37:58.000Z,8.70
2022-11-02T20:41:12.595Z,8.20
2022-11-02T20:44:20.992Z,8.10
2022-11-02T20:47:27.401Z,7.80
2022-11-02T20:50:33.888Z,8.10
2022-11-02T20:53:40.270Z,9.50
2022-11-02T20:56:46.448Z,8.70
2022-11-02T21:02:57.129Z,8.60
2022-11-02T21:09:12.097Z,8.50
2022-11-02T21:12:36.946Z,9.00
2022-11-02T21:15:43.190Z,8.80
2022-11-02T21:18:49.499Z,8.60
2022-11-02T21:21:59.747Z,8.40
2022-11-02T21:25:07.366Z,8.30
2022-11-02T21:28:13.563Z,8.70
2022-11-02T21:34:25.610Z,8.30
2022-11-02T21:40:36.392Z,8.50
2022-11-02T21:43:42.391Z,7.60
2022-11-02T21:46:48.525Z,8.20
2022-11-02T21:52:59.551Z,8.60
2022-11-02T21:56:07.850Z,8.90
2022-11-02T21:59:13.971Z,7.90
2022-11-02T22:05:39.141Z,8.60
2022-11-02T22:08:45.818Z,8.70
2022-11-02T22:12:14.406Z,8.50
2022-11-02T22:15:20.538Z,8.40
2022-11-02T22:21:32.417Z,7.80
2022-11-02T22:24:42.138Z,8.50
2022-11-02T22:27:50.839Z,6.80
2022-11-02T22:34:04.954Z,6.70
2022-11-02T22:37:28.708Z,6.60
2022-11-02T22:40:34.834Z,7.00
2022-11-02T22:46:47.258Z,7.60
2022-11-02T22:49:53.251Z,7.00
2022-11-02T22:52:59.398Z,7.80
2022-11-02T22:59:14.037Z,6.90
2022-11-02T23:02:20.183Z,7.30
2022-11-02T23:08:31.698Z,6.70
2022-11-02T23:11:38.878Z,6.50
2022-11-02T23:14:44.950Z,7.50
2022-11-02T23:17:52.590Z,6.50
2022-11-02T23:20:58.660Z,6.80
2022-11-02T23:24:23.177Z,6.70
2022-11-02T23:27:29.806Z,7.10
2022-11-02T23:30:55.487Z,7.10
2022-11-02T23:37:08.042Z,6.20
2022-11-02T23:40:16.332Z,6.40
2022-11-02T23:43:22.466Z,5.80
2022-11-02T23:49:33.068Z,6.60
2022-11-02T23:52:57.565Z,7.30
2022-11-02T23:56:22.266Z,6.70
2022-11-02T23:59:29.258Z,6.00
